createdAt,value
2019-02-25T00:04:35.745Z,3.60
2019-02-25T00:09:39.329Z,3.50
2019-02-25T00:14:43.392Z,3.40
2019-02-25T00:19:47.033Z,3.40
2019-02-25T00:24:50.697Z,3.40
2019-02-25T00:29:54.276Z,3.20
2019-02-25T00:34:58.175Z,3.20
2019-02-25T00:40:01.757Z,3.20
2019-02-25T00:45:08.691Z,3.30
2019-02-25T00:50:19.893Z,3.20
2019-02-25T00:55:23.826Z,3.10
2019-02-25T01:00:27.704Z,3.20
2019-02-25T01:05:31.427Z,3.00
2019-02-25T01:10:35.076Z,3.00
2019-02-25T01:15:38.672Z,2.70
2019-02-25T01:20:42.621Z,2.70
2019-02-25T01:25:46.213Z,2.80
2019-02-25T01:30:49.786Z,2.60
2019-02-25T01:35:54.033Z,2.70
2019-02-25T01:40:57.617Z,2.90
2019-02-25T01:46:01.264Z,2.60
2019-02-25T01:51:04.954Z,2.40
2019-02-25T01:56:08.673Z,2.60
2019-02-25T02:01:12.249Z,2.70
2019-02-25T02:06:15.833Z,2.70
2019-02-25T02:11:19.430Z,2.70
2019-02-25T02:16:23.086Z,2.70
2019-02-25T02:21:26.673Z,2.50
2019-02-25T02:26:30.253Z,2.70
2019-02-25T02:31:33.918Z,2.70
2019-02-25T02:36:37.881Z,2.50
2019-02-25T02:42:01.688Z,2.60
2019-02-25T02:47:14.103Z,2.40
2019-02-25T02:52:17.681Z,2.20
2019-02-25T02:57:21.273Z,2.20
2019-02-25T03:02:24.858Z,2.40
2019-02-25T03:07:28.445Z,2.40
2019-02-25T03:12:32.025Z,2.30
2019-02-25T03:17:35.618Z,2.20
2019-02-25T03:22:39.341Z,2.20
2019-02-25T03:27:42.997Z,1.80
2019-02-25T03:32:47.004Z,1.90
2019-02-25T03:37:50.741Z,2.10
2019-02-25T03:42:54.332Z,2.00
2019-02-25T03:47:57.908Z,2.10
2019-02-25T03:53:01.789Z,2.10
2019-02-25T03:58:05.506Z,2.10
2019-02-25T04:03:09.476Z,2.00
2019-02-25T04:08:13.053Z,2.10
2019-02-25T04:13:16.650Z,2.20
2019-02-25T04:18:20.650Z,2.00
2019-02-25T04:23:24.303Z,2.10
2019-02-25T04:28:27.891Z,1.80
2019-02-25T04:33:31.481Z,1.90
2019-02-25T04:38:35.411Z,1.90
2019-02-25T04:43:38.997Z,1.70
2019-02-25T04:48:42.578Z,1.60
2019-02-25T04:53:46.229Z,1.30
2019-02-25T04:58:49.823Z,1.60
2019-02-25T05:03:53.765Z,1.70
2019-02-25T05:08:57.760Z,1.70
2019-02-25T05:14:01.345Z,1.60
2019-02-25T05:19:04.995Z,1.60
2019-02-25T05:24:08.572Z,1.60
2019-02-25T05:29:12.230Z,1.60
2019-02-25T05:34:15.833Z,1.60
2019-02-25T05:39:19.430Z,1.40
2019-02-25T05:44:23.069Z,1.50
2019-02-25T05:49:27.011Z,1.50
2019-02-25T05:54:30.911Z,1.70
2019-02-25T05:59:34.825Z,1.80
2019-02-25T06:04:38.502Z,1.80
2019-02-25T06:09:42.144Z,1.60
2019-02-25T06:14:46.208Z,1.60
2019-02-25T06:19:49.792Z,1.50
2019-02-25T06:24:53.388Z,1.40
2019-02-25T06:29:57.042Z,1.20
2019-02-25T06:35:00.985Z,1.30
2019-02-25T06:40:06.413Z,1.60
2019-02-25T06:45:12.903Z,1.80
2019-02-25T06:50:16.572Z,1.90
2019-02-25T06:55:20.221Z,1.90
2019-02-25T07:00:24.208Z,2.10
2019-02-25T07:05:32.016Z,2.10
2019-02-25T07:10:40.375Z,2.40
2019-02-25T07:15:51.678Z,2.60
2019-02-25T07:20:56.910Z,2.40
2019-02-25T07:26:04.569Z,2.70
2019-02-25T07:31:19.192Z,2.80
2019-02-25T07:36:36.763Z,2.80
2019-02-25T07:41:44.637Z,2.70
2019-02-25T07:47:06.052Z,2.90
2019-02-25T07:52:11.408Z,3.40
2019-02-25T07:57:34.945Z,3.60
2019-02-25T08:02:43.118Z,4.10
2019-02-25T08:08:03.349Z,4.60
2019-02-25T08:13:23.923Z,5.40
2019-02-25T08:18:32.252Z,5.90
2019-02-25T08:23:37.516Z,6.70
2019-02-25T08:28:43.038Z,7.20
2019-02-25T08:34:06.070Z,8.00
2019-02-25T08:39:20.645Z,8.40
2019-02-25T08:44:38.150Z,8.90
2019-02-25T08:49:43.885Z,9.50
2019-02-25T08:54:47.886Z,9.90
2019-02-25T08:59:51.925Z,10.50
2019-02-25T09:04:55.585Z,10.80
2019-02-25T09:09:59.233Z,11.40
2019-02-25T09:15:02.933Z,12.10
2019-02-25T09:20:06.666Z,12.10
2019-02-25T09:25:13.245Z,12.40
2019-02-25T09:30:18.954Z,12.10
2019-02-25T09:35:22.534Z,12.20
2019-02-25T09:40:26.122Z,13.00
2019-02-25T09:45:29.771Z,14.00
2019-02-25T09:50:33.439Z,14.50
2019-02-25T09:55:37.163Z,14.90
2019-02-25T10:00:41.145Z,14.70
2019-02-25T10:05:46.254Z,15.70
2019-02-25T10:10:50.436Z,16.50
2019-02-25T10:15:54.025Z,17.50
2019-02-25T10:20:57.757Z,17.60
2019-02-25T10:26:01.419Z,18.50
2019-02-25T10:31:05.440Z,18.60
2019-02-25T10:36:09.160Z,18.80
2019-02-25T10:41:13.066Z,19.70
2019-02-25T10:46:17.704Z,20.40
2019-02-25T10:51:21.745Z,20.90
2019-02-25T10:56:34.305Z,21.60
2019-02-25T11:01:39.243Z,22.90
2019-02-25T11:06:43.366Z,21.90
2019-02-25T11:11:48.563Z,21.30
2019-02-25T11:16:53.029Z,21.90
2019-02-25T11:21:56.607Z,21.20
2019-02-25T11:27:01.066Z,21.10
2019-02-25T11:32:06.297Z,21.10
2019-02-25T11:37:09.966Z,21.00
2019-02-25T11:42:16.428Z,21.40
2019-02-25T11:47:18.859Z,21.80
2019-02-25T11:52:22.604Z,22.40
2019-02-25T11:57:26.790Z,22.80
2019-02-25T12:02:30.361Z,22.50
2019-02-25T12:07:34.035Z,22.30
2019-02-25T12:12:37.761Z,22.60
2019-02-25T12:17:41.412Z,23.90
2019-02-25T12:22:45.069Z,24.50
2019-02-25T12:27:48.996Z,25.50
2019-02-25T12:32:52.719Z,25.30
2019-02-25T12:37:56.371Z,25.10
2019-02-25T12:42:59.907Z,25.60
2019-02-25T12:48:03.626Z,24.60
2019-02-25T12:53:07.632Z,25.60
2019-02-25T12:58:11.245Z,26.50
2019-02-25T13:03:15.294Z,26.60
2019-02-25T13:08:18.872Z,26.60
2019-02-25T13:13:22.836Z,25.90
2019-02-25T13:18:26.740Z,26.00
2019-02-25T13:23:30.326Z,26.10
2019-02-25T13:28:33.955Z,25.50
2019-02-25T13:33:37.554Z,25.40
2019-02-25T13:38:41.138Z,25.40
2019-02-25T13:43:45.161Z,25.30
2019-02-25T13:48:48.748Z,24.70
2019-02-25T13:53:52.409Z,24.40
2019-02-25T13:58:55.993Z,24.80
2019-02-25T14:03:59.658Z,24.40
2019-02-25T14:09:04.945Z,24.70
2019-02-25T14:14:08.604Z,24.40
2019-02-25T14:19:12.929Z,23.60
2019-02-25T14:24:18.422Z,23.60
2019-02-25T14:29:26.235Z,23.90
2019-02-25T14:34:27.808Z,23.30
2019-02-25T14:39:32.959Z,22.40
2019-02-25T14:44:38.088Z,21.90
2019-02-25T14:49:42.920Z,20.90
2019-02-25T14:54:46.634Z,21.30
2019-02-25T14:59:50.283Z,21.30
2019-02-25T15:04:54.511Z,20.70
2019-02-25T15:09:59.969Z,20.40
2019-02-25T15:15:04.841Z,19.80
2019-02-25T15:20:12.646Z,20.70
2019-02-25T15:25:18.126Z,20.20
2019-02-25T15:30:30.824Z,19.50
2019-02-25T15:35:36.971Z,19.00
2019-02-25T15:40:40.379Z,18.90
2019-02-25T15:45:45.260Z,18.60
2019-02-25T15:50:52.970Z,18.40
2019-02-25T15:56:01.069Z,17.90
2019-02-25T16:01:02.949Z,17.80
2019-02-25T16:06:08.362Z,17.60
2019-02-25T16:11:14.040Z,17.30
2019-02-25T16:16:19.999Z,16.80
2019-02-25T16:21:24.467Z,15.80
2019-02-25T16:26:29.220Z,15.30
2019-02-25T16:31:33.719Z,14.90
2019-02-25T16:36:38.123Z,14.10
2019-02-25T16:41:43.480Z,13.80
2019-02-25T16:46:48.957Z,13.20
2019-02-25T16:51:53.185Z,12.90
2019-02-25T16:56:58.048Z,12.40
2019-02-25T17:02:02.307Z,11.50
2019-02-25T17:07:06.929Z,11.30
2019-02-25T17:12:10.584Z,11.20
2019-02-25T17:17:14.242Z,10.60
2019-02-25T17:22:17.894Z,10.40
2019-02-25T17:27:21.481Z,10.30
2019-02-25T17:32:25.531Z,10.00
2019-02-25T17:37:31.371Z,9.70
2019-02-25T17:42:34.807Z,9.60
2019-02-25T17:47:39.671Z,9.60
2019-02-25T17:52:45.162Z,9.60
2019-02-25T17:57:50.327Z,9.70
2019-02-25T18:02:56.680Z,9.50
2019-02-25T18:08:00.553Z,9.20
2019-02-25T18:13:06.705Z,9.00
2019-02-25T18:18:12.536Z,9.00
2019-02-25T18:23:15.845Z,8.80
2019-02-25T18:28:20.143Z,8.60
2019-02-25T18:33:26.888Z,8.60
2019-02-25T18:38:31.682Z,8.40
2019-02-25T18:43:35.468Z,8.40
2019-02-25T18:48:40.710Z,8.10
2019-02-25T18:53:44.826Z,8.20
2019-02-25T18:58:48.644Z,8.20
2019-02-25T19:03:54.311Z,8.20
2019-02-25T19:08:58.304Z,8.00
2019-02-25T19:14:03.696Z,7.80
2019-02-25T19:19:07.963Z,7.80
2019-02-25T19:24:14.304Z,7.80
2019-02-25T19:29:19.609Z,7.70
2019-02-25T19:34:23.596Z,7.50
2019-02-25T19:39:27.264Z,7.70
2019-02-25T19:44:32.105Z,7.60
2019-02-25T19:49:37.131Z,7.30
2019-02-25T19:54:43.352Z,7.20
2019-02-25T19:59:50.265Z,7.10
2019-02-25T20:04:52.482Z,7.10
2019-02-25T20:09:57.946Z,7.10
2019-02-25T20:15:01.850Z,6.80
2019-02-25T20:20:10.981Z,6.90
2019-02-25T20:25:16.825Z,7.00
2019-02-25T20:30:21.950Z,6.90
2019-02-25T20:35:27.263Z,6.80
2019-02-25T20:40:32.998Z,6.70
2019-02-25T20:45:37.768Z,6.70
2019-02-25T20:50:41.438Z,6.60
2019-02-25T20:55:45.193Z,6.60
2019-02-25T21:00:50.917Z,6.50
2019-02-25T21:05:54.750Z,6.60
2019-02-25T21:10:59.895Z,6.40
2019-02-25T21:16:04.878Z,6.50
2019-02-25T21:21:11.273Z,6.40
2019-02-25T21:26:14.228Z,6.40
2019-02-25T21:31:19.556Z,6.60
2019-02-25T21:36:23.113Z,6.70
2019-02-25T21:41:26.770Z,6.80
2019-02-25T21:46:31.596Z,6.90
2019-02-25T21:51:36.887Z,6.90
2019-02-25T21:56:41.293Z,6.90
2019-02-25T22:01:44.949Z,7.00
2019-02-25T22:06:51.017Z,6.90
2019-02-25T22:11:54.582Z,6.90
2019-02-25T22:16:58.922Z,7.00
2019-02-25T22:22:04.954Z,6.80
2019-02-25T22:27:08.916Z,6.70
2019-02-25T22:32:12.759Z,6.70
2019-02-25T22:37:17.486Z,6.70
2019-02-25T22:42:21.569Z,6.70
2019-02-25T22:47:25.507Z,6.70
2019-02-25T22:52:31.408Z,7.20
2019-02-25T22:57:35.069Z,7.00
2019-02-25T23:02:41.192Z,6.70
2019-02-25T23:07:45.950Z,6.60
2019-02-25T23:12:49.969Z,6.40
2019-02-25T23:17:53.545Z,6.30
2019-02-25T23:22:59.489Z,6.60
2019-02-25T23:28:02.915Z,6.60
2019-02-25T23:33:08.030Z,6.40
2019-02-25T23:38:11.756Z,6.50
2019-02-25T23:43:16.736Z,6.50
2019-02-25T23:48:20.570Z,6.40
2019-02-25T23:53:26.094Z,5.90
2019-02-25T23:58:29.369Z,6.00
